Time;durP1;ratioP1;P1;durP2;ratioP2;P2;SDS_P1;SDS_P2;PMS_P1;PMS_P2;Temp;Humidity;BMP_temperature;BMP_pressure;BME280_temperature;BME280_humidity;BME280_pressure;Samples;Min_cycle;Max_cycle;Signal;HPM_P1;HPM_P2
2022/12/24 00:00:23;;;;;;;51.42;39.53;;;;;;;5.08;63.24;99991.08;1728942;81;21074;-60
2022/12/24 00:02:50;;;;;;;52.88;39.55;;;;;;;5.06;63.14;99988.18;1721215;81;21075;-60
2022/12/24 00:05:17;;;;;;;29.45;18.75;;;;;;;5.00;63.11;99985.03;1710129;81;21010;-60
2022/12/24 00:07:43;;;;;;;47.93;34.55;;;;;;;4.98;63.05;99988.20;1704439;83;21090;-60
2022/12/24 00:10:10;;;;;;;52.33;38.50;;;;;;;4.98;62.93;99986.91;1689702;82;21892;-60
2022/12/24 00:12:38;;;;;;;31.90;18.00;;;;;;;4.99;62.95;99976.86;1695674;83;21054;-60
2022/12/24 00:15:05;;;;;;;46.90;36.48;;;;;;;5.01;63.35;99980.19;1689931;83;21222;-60
2022/12/24 00:17:33;;;;;;;33.35;18.50;;;;;;;5.05;63.52;99977.39;1696805;83;21165;-60
2022/12/24 00:20:00;;;;;;;34.63;21.40;;;;;;;5.05;63.51;99976.92;1701016;81;21126;-61
2022/12/24 00:22:26;;;;;;;51.65;35.73;;;;;;;5.05;63.63;99972.18;1699207;81;21244;-60
2022/12/24 00:24:54;;;;;;;50.63;37.78;;;;;;;5.07;63.76;99967.70;1705757;82;21066;-60
2022/12/24 00:27:21;;;;;;;53.95;38.23;;;;;;;5.07;63.84;99959.88;1705839;82;21998;-60
2022/12/24 00:29:47;;;;;;;26.57;16.02;;;;;;;5.05;63.87;99959.14;1709657;82;21654;-61
2022/12/24 00:32:14;;;;;;;48.87;37.48;;;;;;;4.98;63.97;99956.91;1714930;81;21103;-60
2022/12/24 00:34:40;;;;;;;38.10;19.50;;;;;;;4.94;64.36;99954.59;1723622;81;21339;-60
2022/12/24 00:37:07;;;;;;;44.67;34.25;;;;;;;4.98;64.53;99960.00;1693060;83;21574;-60
2022/12/24 00:39:35;;;;;;;28.05;17.15;;;;;;;5.01;64.40;99955.42;1697624;83;21169;-60
2022/12/24 00:42:01;;;;;;;29.70;16.93;;;;;;;5.05;64.34;99959.14;1718570;81;21058;-60
2022/12/24 00:44:28;;;;;;;45.00;33.65;;;;;;;5.08;64.20;99954.56;1713346;81;21184;-60
2022/12/24 00:46:54;;;;;;;51.33;37.25;;;;;;;5.07;64.33;99960.70;1704599;81;21261;-60
2022/12/24 00:49:22;;;;;;;49.75;36.80;;;;;;;5.05;64.33;99961.75;1709443;82;21149;-60
2022/12/24 00:51:49;;;;;;;33.67;19.02;;;;;;;5.01;64.52;99964.55;1691115;82;21055;-60
2022/12/24 00:54:16;;;;;;;33.70;18.02;;;;;;;5.01;64.56;99963.72;1711951;82;21059;-60
2022/12/24 00:56:42;;;;;;;46.45;34.98;;;;;;;4.99;64.66;99953.83;1711610;81;21133;-60
2022/12/24 00:59:09;;;;;;;36.23;17.70;;;;;;;4.96;64.59;99960.54;1712680;82;22204;-60
2022/12/24 01:01:35;;;;;;;34.60;20.90;;;;;;;4.91;64.53;99962.60;1701449;82;21032;-60
2022/12/24 01:06:48;;;;;;;34.58;19.05;;;;;;;4.75;64.81;99956.23;1727529;81;21075;-60
2022/12/24 01:09:15;;;;;;;49.95;35.98;;;;;;;4.67;64.93;99955.39;1736320;81;21175;-60
2022/12/24 01:11:42;;;;;;;31.82;17.12;;;;;;;4.60;65.04;99962.75;1734393;81;21590;-60
2022/12/24 01:14:09;;;;;;;48.80;34.88;;;;;;;4.57;65.20;99952.55;1724082;81;21063;-60
2022/12/24 01:16:35;;;;;;;27.98;16.77;;;;;;;4.65;65.23;99953.35;1727879;81;21054;-60
2022/12/24 01:19:02;;;;;;;50.25;34.98;;;;;;;4.73;65.44;99950.28;1707726;81;21118;-60
2022/12/24 01:21:29;;;;;;;44.88;34.50;;;;;;;4.82;65.42;99957.51;1712511;81;21047;-60
2022/12/24 01:23:55;;;;;;;45.80;35.28;;;;;;;4.91;65.53;99949.56;1736889;81;22074;-60
2022/12/24 01:26:22;;;;;;;53.25;36.85;;;;;;;4.95;65.49;99954.50;1730724;81;21077;-60
2022/12/24 01:28:48;;;;;;;48.58;36.48;;;;;;;4.97;65.39;99943.97;1726697;81;21082;-60
2022/12/24 01:31:17;;;;;;;29.05;15.55;;;;;;;4.96;65.35;99945.75;1719492;81;21089;-60
2022/12/24 01:33:45;;;;;;;35.23;19.02;;;;;;;4.96;65.35;99950.11;1741737;81;21010;-60
2022/12/24 01:36:12;;;;;;;49.13;36.08;;;;;;;4.92;65.27;99962.98;1731649;81;21955;-60
2022/12/24 01:38:40;;;;;;;49.45;37.15;;;;;;;4.90;65.26;99970.08;1711468;81;21034;-60
2022/12/24 01:43:51;;;;;;;34.30;15.78;;;;;;;4.86;65.29;99962.91;1704997;82;21117;-60
2022/12/24 01:46:29;;;;;;;28.57;17.32;;;;;;;4.92;65.06;99948.17;1706117;83;21102;-60
2022/12/24 01:48:58;;;;;;;42.33;33.85;;;;;;;4.97;65.15;99943.50;1719806;81;21571;-60
2022/12/24 01:51:37;;;;;;;45.90;35.30;;;;;;;5.00;65.15;99951.12;1745909;81;21049;-60
2022/12/24 01:56:07;;;;;;;48.30;36.65;;;;;;;4.81;65.94;99933.70;1779249;78;22703;-59
2022/12/24 01:58:34;;;;;;;30.37;16.67;;;;;;;4.96;65.24;99934.47;1745913;80;20960;-60
2022/12/24 02:01:01;;;;;;;47.13;36.23;;;;;;;4.92;65.16;99936.44;1752219;80;21246;-60
2022/12/24 02:03:27;;;;;;;45.95;35.38;;;;;;;4.86;65.15;99937.29;1776127;80;20926;-60
2022/12/24 02:05:56;;;;;;;48.92;36.33;;;;;;;4.82;65.36;99934.05;1765293;80;21074;-60
2022/12/24 02:08:22;;;;;;;32.25;15.65;;;;;;;4.83;65.62;99929.22;1751089;80;21837;-59
2022/12/24 02:10:49;;;;;;;27.58;15.63;;;;;;;4.87;65.62;99922.86;1778234;80;21077;-60
2022/12/24 02:13:18;;;;;;;49.18;31.77;;;;;;;4.97;65.34;99923.11;1756115;80;21509;-60
2022/12/24 02:15:57;;;;;;;44.08;33.78;;;;;;;5.05;65.29;99922.63;1752861;81;20979;-59
2022/12/24 02:18:44;;;;;;;28.67;14.40;;;;;;;5.12;65.28;99918.20;1776648;80;21010;-60
2022/12/24 02:21:48;;;;;;;28.98;15.93;;;;;;;5.17;65.27;99921.83;1766608;80;21082;-61
2022/12/24 02:24:49;;;;;;;44.18;33.70;;;;;;;5.16;65.24;99909.71;1729354;81;21054;-60
2022/12/24 02:27:34;;;;;;;48.40;34.70;;;;;;;5.20;65.31;99912.51;1761063;80;21822;-59
2022/12/24 02:30:14;;;;;;;26.90;15.28;;;;;;;5.20;64.94;99915.11;1754809;81;21634;-59
2022/12/24 02:32:58;;;;;;;29.65;15.55;;;;;;;5.15;64.89;99919.32;1751324;80;22282;-59
2022/12/24 02:35:39;;;;;;;48.25;34.90;;;;;;;5.11;64.93;99914.39;1726479;82;21011;-59
2022/12/24 02:38:26;;;;;;;29.02;15.55;;;;;;;5.06;64.88;99921.23;1734754;81;21305;-59
2022/12/24 02:41:00;;;;;;;41.35;29.55;;;;;;;5.06;64.95;99923.84;1754658;80;21204;-59
2022/12/24 02:43:32;;;;;;;23.20;12.13;;;;;;;5.14;64.86;99912.42;1773586;80;21465;-60
2022/12/24 02:46:02;;;;;;;41.02;31.52;;;;;;;5.23;64.78;99918.83;1748405;80;21582;-60
2022/12/24 02:48:29;;;;;;;26.50;13.85;;;;;;;5.28;64.64;99911.55;1773173;80;21472;-59
2022/12/24 02:51:04;;;;;;;41.28;30.57;;;;;;;5.29;64.65;99918.41;1754955;80;21873;-60
2022/12/24 02:53:32;;;;;;;29.50;14.58;;;;;;;5.28;64.67;99911.55;1758115;80;22683;-60
2022/12/24 02:56:07;;;;;;;42.30;31.57;;;;;;;5.30;64.69;99916.19;1736957;80;21074;-60
2022/12/24 02:59:07;;;;;;;37.35;16.12;;;;;;;5.28;64.52;99912.84;1771105;80;20994;-60
2022/12/24 03:02:00;;;;;;;32.03;14.68;;;;;;;5.27;64.60;99915.55;1737745;80;21038;-58
2022/12/24 03:04:42;;;;;;;39.60;31.07;;;;;;;5.29;64.35;99911.89;1727300;81;21027;-60
2022/12/24 03:07:46;;;;;;;27.40;14.13;;;;;;;5.25;64.25;99916.95;1744670;80;21201;-60
2022/12/24 03:10:24;;;;;;;37.70;29.55;;;;;;;5.25;64.24;99917.44;1749684;80;21066;-60
2022/12/24 03:12:54;;;;;;;21.85;12.63;;;;;;;5.31;64.09;99911.34;1736673;80;21015;-60
2022/12/24 03:15:23;;;;;;;40.33;29.60;;;;;;;5.36;63.95;99911.88;1742852;81;21019;-60
2022/12/24 03:17:51;;;;;;;27.13;15.30;;;;;;;5.39;63.82;99905.12;1759854;80;21511;-60
2022/12/24 03:20:22;;;;;;;39.95;30.62;;;;;;;5.36;63.89;99896.67;1738558;80;21880;-60
2022/12/24 03:22:49;;;;;;;41.13;30.60;;;;;;;5.31;64.08;99906.12;1754149;78;21053;-60
2022/12/24 03:25:16;;;;;;;23.20;13.88;;;;;;;5.30;64.11;99896.62;1742799;81;21497;-59
2022/12/24 03:27:43;;;;;;;39.92;31.42;;;;;;;5.32;63.90;99907.78;1767418;80;21526;-60
2022/12/24 03:30:14;;;;;;;42.55;31.05;;;;;;;5.33;63.80;99909.91;1774600;80;21562;-59
2022/12/24 03:32:40;;;;;;;41.48;31.12;;;;;;;5.33;63.77;99910.77;1736870;80;21117;-59
2022/12/24 03:35:08;;;;;;;42.55;30.85;;;;;;;5.31;63.70;99904.82;1755457;81;21094;-59
2022/12/24 03:37:35;;;;;;;42.35;31.48;;;;;;;5.30;63.77;99904.44;1747585;80;21015;-59
2022/12/24 03:40:01;;;;;;;40.17;30.35;;;;;;;5.31;63.74;99898.75;1767624;80;21054;-59
2022/12/24 03:42:28;;;;;;;23.35;12.03;;;;;;;5.36;63.69;99897.53;1776712;80;21082;-59
2022/12/24 03:44:55;;;;;;;20.70;12.53;;;;;;;5.49;63.48;99902.75;1737901;80;21532;-59
2022/12/24 03:47:21;;;;;;;38.33;29.52;;;;;;;5.55;63.34;99919.80;1765616;79;21092;-59
2022/12/24 03:49:48;;;;;;;44.25;31.73;;;;;;;5.53;63.15;99912.06;1742036;80;21047;-59
2022/12/24 03:52:14;;;;;;;40.63;30.43;;;;;;;5.52;63.15;99923.91;1771564;80;21030;-59
2022/12/24 03:54:40;;;;;;;41.35;30.23;;;;;;;5.49;63.24;99912.36;1738313;81;21139;-59
2022/12/24 03:57:07;;;;;;;27.48;16.12;;;;;;;5.48;63.29;99904.16;1732995;80;21263;-59
2022/12/24 03:59:33;;;;;;;39.95;31.02;;;;;;;5.50;63.32;99912.73;1737358;80;21142;-60
2022/12/24 04:02:00;;;;;;;44.95;32.38;;;;;;;5.48;63.19;99904.16;1743426;81;21090;-59
2022/12/24 04:04:26;;;;;;;45.83;32.65;;;;;;;5.48;63.04;99908.06;1718947;81;21106;-59
2022/12/24 04:06:53;;;;;;;25.35;13.90;;;;;;;5.44;63.01;99903.52;1725230;80;21087;-59
2022/12/24 04:09:20;;;;;;;32.23;16.25;;;;;;;5.38;63.01;99904.78;1729718;80;21217;-58
2022/12/24 04:11:46;;;;;;;26.95;16.02;;;;;;;5.40;62.91;99908.12;1730562;80;21098;-58
2022/12/24 04:14:13;;;;;;;24.98;14.68;;;;;;;5.45;62.97;99904.38;1740475;80;21024;-59
2022/12/24 04:16:39;;;;;;;40.28;30.32;;;;;;;5.47;62.99;99895.50;1726327;80;21043;-59
2022/12/24 04:19:06;;;;;;;39.70;32.25;;;;;;;5.44;63.20;99893.56;1745686;80;21051;-59
2022/12/24 04:21:32;;;;;;;43.92;32.28;;;;;;;5.38;63.36;99893.04;1742257;81;22163;-59
2022/12/24 04:23:59;;;;;;;39.35;30.40;;;;;;;5.37;63.37;99896.57;1740007;81;21010;-59
2022/12/24 04:26:25;;;;;;;40.50;31.50;;;;;;;5.44;63.05;99901.39;1738865;80;21067;-59
2022/12/24 04:28:52;;;;;;;26.73;16.52;;;;;;;5.40;63.05;99903.38;1737369;80;21006;-59
2022/12/24 04:31:18;;;;;;;45.45;32.75;;;;;;;5.27;63.35;99907.25;1742337;81;21057;-59
2022/12/24 04:33:45;;;;;;;31.10;16.60;;;;;;;5.24;63.51;99906.14;1738815;81;21215;-59
2022/12/24 04:36:15;;;;;;;41.08;30.95;;;;;;;5.21;63.61;99901.12;1733877;80;21035;-59
2022/12/24 04:38:42;;;;;;;29.10;14.05;;;;;;;5.23;63.75;99903.63;1741189;82;21180;-59
2022/12/24 04:41:13;;;;;;;23.92;14.10;;;;;;;5.26;63.76;99908.20;1740697;80;21059;-59
2022/12/24 04:43:39;;;;;;;37.53;28.98;;;;;;;5.40;63.41;99903.38;1743078;80;21087;-59
2022/12/24 04:46:10;;;;;;;36.55;28.77;;;;;;;5.50;63.20;99904.91;1740626;81;21584;-59
2022/12/24 04:48:36;;;;;;;39.85;31.30;;;;;;;5.57;63.23;99904.86;1734703;80;21048;-59
2022/12/24 04:51:04;;;;;;;37.83;30.65;;;;;;;5.59;63.21;99899.06;1736927;80;21015;-59
2022/12/24 04:53:31;;;;;;;40.40;31.55;;;;;;;5.65;63.20;99902.58;1744238;80;21509;-60
2022/12/24 04:55:58;;;;;;;43.05;32.23;;;;;;;5.59;63.37;99899.06;1739273;81;21603;-59
2022/12/24 04:58:25;;;;;;;23.30;14.53;;;;;;;5.59;63.30;99901.67;1751048;80;21232;-60
2022/12/24 05:00:52;;;;;;;48.60;32.35;;;;;;;5.56;63.13;99900.12;1742299;80;21050;-59
2022/12/24 05:03:18;;;;;;;46.15;32.23;;;;;;;5.54;63.17;99897.23;1730512;81;21062;-59
2022/12/24 05:05:46;;;;;;;41.05;32.45;;;;;;;5.52;63.19;99897.81;1755604;81;21519;-59
2022/12/24 05:08:13;;;;;;;41.20;32.40;;;;;;;5.49;63.07;99901.45;1746828;80;20988;-59
2022/12/24 05:10:40;;;;;;;28.23;17.05;;;;;;;5.44;63.03;99902.70;1762698;80;21214;-59
2022/12/24 05:13:06;;;;;;;24.77;12.60;;;;;;;5.40;63.01;99905.50;1757343;80;21067;-59
2022/12/24 05:15:33;;;;;;;38.20;29.40;;;;;;;5.46;63.06;99909.47;1760558;80;20985;-59
2022/12/24 05:18:00;;;;;;;24.00;14.83;;;;;;;5.52;63.01;99905.64;1749358;81;21046;-59
2022/12/24 05:20:26;;;;;;;40.95;32.08;;;;;;;5.55;63.01;99908.87;1758400;80;21553;-59
2022/12/24 05:28:23;;;;;;;48.42;35.90;;;;;;;5.55;63.15;99904.96;1746637;80;21447;-59
2022/12/24 05:30:51;;;;;;;47.73;37.93;;;;;;;5.52;63.01;99901.25;1685003;83;21061;-59
2022/12/24 05:33:18;;;;;;;48.78;34.80;;;;;;;5.47;63.09;99897.28;1692207;83;21612;-60
2022/12/24 05:35:44;;;;;;;32.58;16.17;;;;;;;5.45;63.13;99901.30;1694581;84;21225;-60
2022/12/24 05:38:11;;;;;;;49.55;38.20;;;;;;;5.44;63.23;99900.91;1697592;82;21612;-60
2022/12/24 05:40:37;;;;;;;44.27;33.18;;;;;;;5.42;63.25;99913.71;1695295;84;21540;-60
2022/12/24 05:43:04;;;;;;;45.50;34.40;;;;;;;5.40;63.18;99905.50;1693965;83;21092;-60
2022/12/24 05:45:30;;;;;;;26.45;12.47;;;;;;;5.45;63.03;99910.42;1697866;83;21095;-60
2022/12/24 05:47:57;;;;;;;52.98;39.30;;;;;;;5.49;62.88;99909.75;1696618;82;21233;-60
2022/12/24 05:50:24;;;;;;;48.65;36.68;;;;;;;5.49;62.94;99904.53;1692424;83;21063;-60
2022/12/24 05:52:52;;;;;;;44.15;34.27;;;;;;;5.47;63.02;99908.55;1694449;84;21055;-60
2022/12/24 05:55:19;;;;;;;25.90;13.72;;;;;;;5.49;63.04;99906.66;1710757;83;21399;-60
2022/12/24 05:57:45;;;;;;;45.78;35.45;;;;;;;5.48;62.98;99909.37;1693445;82;21065;-60
2022/12/24 06:00:13;;;;;;;41.33;31.97;;;;;;;5.45;63.00;99910.42;1703773;83;21156;-60
2022/12/24 06:02:40;;;;;;;43.15;33.02;;;;;;;5.42;62.96;99912.41;1696847;82;22359;-57
2022/12/24 06:05:07;;;;;;;45.98;35.60;;;;;;;5.37;63.07;99920.05;1702273;82;21150;-59
2022/12/24 06:10:01;;;;;;;44.53;35.58;;;;;;;5.23;63.58;99923.19;1791826;78;22669;-58
2022/12/24 06:12:28;;;;;;;29.90;18.00;;;;;;;5.23;63.35;99925.36;1773977;80;22156;-59
2022/12/24 06:14:55;;;;;;;44.20;32.05;;;;;;;5.23;63.45;99939.70;1763694;79;21147;-59
2022/12/24 06:17:21;;;;;;;42.20;33.40;;;;;;;5.29;63.33;99939.28;1722093;82;20994;-59
2022/12/24 06:19:48;;;;;;;44.90;35.55;;;;;;;5.36;63.32;99936.66;1715388;81;21153;-59
2022/12/24 06:22:14;;;;;;;30.80;17.77;;;;;;;5.44;63.37;99942.67;1687583;84;21200;-59
2022/12/24 06:24:40;;;;;;;30.08;17.77;;;;;;;5.48;63.32;99936.33;1715615;82;21090;-59
2022/12/24 06:27:07;;;;;;;47.00;35.05;;;;;;;5.50;63.26;99929.23;1715200;82;21267;-59
2022/12/24 06:29:33;;;;;;;42.40;31.25;;;;;;;5.53;63.31;99932.94;1704330;82;21063;-59
2022/12/24 06:32:00;;;;;;;46.73;34.55;;;;;;;5.57;63.18;99932.27;1714164;82;21046;-60
2022/12/24 06:34:27;;;;;;;44.55;33.88;;;;;;;5.56;63.12;99926.66;1715889;82;21102;-59
2022/12/24 06:36:54;;;;;;;46.48;32.55;;;;;;;5.58;63.20;99924.34;1708537;82;21035;-59
2022/12/24 06:39:20;;;;;;;24.18;14.75;;;;;;;5.62;63.15;99934.09;1720103;81;21251;-60
2022/12/24 06:41:47;;;;;;;41.18;32.00;;;;;;;5.61;62.94;99923.28;1715283;81;21513;-59
2022/12/24 06:44:13;;;;;;;45.12;31.68;;;;;;;5.57;62.90;99933.09;1707103;82;21039;-60
2022/12/24 06:46:40;;;;;;;22.30;12.58;;;;;;;5.57;62.86;99934.88;1712949;82;21042;-60
2022/12/24 06:49:07;;;;;;;25.30;15.90;;;;;;;5.62;62.73;99935.41;1722733;82;21362;-60
2022/12/24 06:51:33;;;;;;;37.93;30.35;;;;;;;5.69;62.67;99928.00;1722521;82;21293;-59
2022/12/24 06:54:00;;;;;;;31.45;15.80;;;;;;;5.75;62.62;99931.03;1713113;82;21099;-60
2022/12/24 06:56:26;;;;;;;43.83;31.90;;;;;;;5.76;62.56;99937.91;1725226;82;21064;-60
2022/12/24 06:58:53;;;;;;;47.67;33.60;;;;;;;5.77;62.71;99934.85;1714369;82;21110;-60
2022/12/24 07:01:19;;;;;;;30.12;15.85;;;;;;;5.80;62.76;99937.70;1715239;82;21130;-60
2022/12/24 07:03:46;;;;;;;41.37;31.20;;;;;;;5.83;62.67;99927.89;1718530;82;21157;-60
2022/12/24 07:06:18;;;;;;;42.33;31.60;;;;;;;5.84;62.53;99928.75;1714093;82;21538;-60
2022/12/24 07:08:44;;;;;;;31.87;16.60;;;;;;;5.84;62.52;99921.73;1702505;82;21538;-60
2022/12/24 07:11:11;;;;;;;41.83;31.23;;;;;;;5.86;62.51;99922.95;1741069;80;21086;-60
2022/12/24 07:13:38;;;;;;;45.92;32.38;;;;;;;5.88;62.50;99928.89;1745288;80;21042;-60
2022/12/24 07:16:05;;;;;;;43.25;31.95;;;;;;;5.88;62.51;99937.55;1743648;80;22031;-60
2022/12/24 07:18:31;;;;;;;43.25;31.27;;;;;;;5.89;62.39;99942.33;1741882;80;21566;-60
2022/12/24 07:20:59;;;;;;;39.90;29.75;;;;;;;5.89;62.25;99940.55;1731666;80;21805;-60
2022/12/24 07:23:26;;;;;;;39.40;29.60;;;;;;;5.94;62.11;99934.53;1726972;82;21047;-60
2022/12/24 07:25:53;;;;;;;39.45;30.68;;;;;;;6.00;61.99;99935.95;1730109;80;21059;-61
2022/12/24 07:28:19;;;;;;;37.70;29.72;;;;;;;6.04;61.86;99937.88;1744332;82;21707;-61
2022/12/24 07:30:47;;;;;;;41.42;29.75;;;;;;;6.02;61.89;99939.28;1733227;80;21058;-62
2022/12/24 07:33:13;;;;;;;42.93;31.62;;;;;;;6.04;61.96;99938.70;1744058;80;21106;-65
2022/12/24 07:35:40;;;;;;;41.23;31.60;;;;;;;6.03;61.83;99943.55;1735409;80;21527;-62
2022/12/24 07:38:06;;;;;;;42.90;32.65;;;;;;;6.02;61.77;99947.56;1737528;80;21571;-62
2022/12/24 07:40:33;;;;;;;26.62;15.72;;;;;;;5.99;61.84;99949.93;1738165;82;21150;-62
2022/12/24 07:43:00;;;;;;;39.63;30.55;;;;;;;5.97;61.88;99941.38;1745361;80;21031;-61
2022/12/24 07:45:26;;;;;;;44.13;31.90;;;;;;;5.98;61.88;99945.64;1746047;80;21099;-63
2022/12/24 07:47:53;;;;;;;45.83;33.88;;;;;;;5.97;61.95;99938.77;1730253;80;21360;-63
2022/12/24 07:50:19;;;;;;;45.23;32.28;;;;;;;5.98;62.11;99937.80;1737980;80;21050;-63
2022/12/24 07:52:46;;;;;;;43.73;30.77;;;;;;;6.01;62.09;99941.52;1740106;80;21233;-63
2022/12/24 07:55:12;;;;;;;40.80;30.62;;;;;;;6.16;62.36;99940.12;1734475;80;21176;-62
2022/12/24 07:57:39;;;;;;;39.18;28.50;;;;;;;6.32;62.24;99940.70;1732966;80;21026;-60
2022/12/24 08:00:07;;;;;;;39.35;30.65;;;;;;;6.45;61.94;99941.52;1742864;80;21151;-60
2022/12/24 08:02:36;;;;;;;40.23;31.33;;;;;;;6.50;61.54;99932.06;1713572;82;21069;-61
2022/12/24 08:05:04;;;;;;;36.83;30.65;;;;;;;6.52;61.41;99932.78;1734839;80;21215;-61
2022/12/24 08:07:31;;;;;;;38.40;31.52;;;;;;;6.58;61.34;99943.30;1735047;80;21495;-62
2022/12/24 08:09:57;;;;;;;46.77;34.78;;;;;;;6.62;61.24;99944.73;1730961;81;21071;-62
2022/12/24 08:12:24;;;;;;;53.08;38.10;;;;;;;6.65;61.21;99945.84;1720953;82;21146;-60
2022/12/24 08:14:51;;;;;;;45.30;34.63;;;;;;;6.68;61.06;99946.94;1733090;82;21058;-60
2022/12/24 08:17:18;;;;;;;44.13;31.60;;;;;;;6.70;60.94;99947.65;1717030;82;21265;-61
2022/12/24 08:19:44;;;;;;;43.83;33.38;;;;;;;6.69;60.71;99952.50;1725508;81;21552;-61
2022/12/24 08:22:10;;;;;;;46.85;37.53;;;;;;;6.65;60.67;99944.53;1730930;82;21123;-61
2022/12/24 08:24:37;;;;;;;46.13;34.63;;;;;;;6.61;60.78;99939.99;1723795;82;21620;-61
2022/12/24 08:27:03;;;;;;;45.95;32.30;;;;;;;6.62;60.96;99934.28;1721833;82;21548;-61
2022/12/24 08:29:30;;;;;;;41.77;29.57;;;;;;;6.66;60.80;99931.83;1726471;82;22525;-61
2022/12/24 08:31:56;;;;;;;37.65;28.35;;;;;;;6.75;60.71;99929.86;1722328;82;21052;-58
2022/12/24 08:34:23;;;;;;;37.05;27.82;;;;;;;6.84;60.43;99918.75;1700752;83;21114;-62
2022/12/24 08:36:50;;;;;;;38.90;30.27;;;;;;;6.87;60.10;99923.73;1723015;82;21102;-59
2022/12/24 08:39:16;;;;;;;41.08;32.73;;;;;;;6.85;59.93;99916.48;1731598;82;21040;-60
2022/12/24 08:41:43;;;;;;;44.50;33.38;;;;;;;6.82;60.18;99912.77;1726465;80;21248;-64
2022/12/24 08:44:09;;;;;;;42.17;32.42;;;;;;;6.85;60.31;99909.94;1727850;81;21106;-63
2022/12/24 08:46:37;;;;;;;39.45;30.27;;;;;;;6.88;60.20;99914.12;1719983;82;21032;-68
2022/12/24 08:49:04;;;;;;;44.70;30.70;;;;;;;6.88;60.06;99920.67;1720353;82;21057;-68
2022/12/24 08:51:31;;;;;;;43.75;33.35;;;;;;;6.85;59.95;99904.71;1722606;82;21071;-65
2022/12/24 08:53:58;;;;;;;46.20;32.05;;;;;;;6.82;60.16;99912.77;1719177;82;21584;-66
2022/12/24 08:56:26;;;;;;;44.73;34.30;;;;;;;6.82;60.21;99902.31;1716621;82;21059;-62
2022/12/24 08:58:53;;;;;;;42.40;31.55;;;;;;;6.83;60.37;99906.61;1720175;81;21369;-62
2022/12/24 09:01:19;;;;;;;44.77;33.70;;;;;;;6.86;60.30;99909.49;1705034;82;21046;-62
2022/12/24 09:03:47;;;;;;;39.15;29.30;;;;;;;6.87;60.29;99913.27;1721523;82;21026;-63
2022/12/24 09:06:13;;;;;;;37.70;28.65;;;;;;;6.87;60.03;99915.89;1721321;82;21225;-64
2022/12/24 09:08:40;;;;;;;39.70;29.90;;;;;;;6.92;59.83;99911.64;1723857;82;21087;-62
2022/12/24 09:11:16;;;;;;;43.15;32.83;;;;;;;6.92;59.73;99915.56;1748847;80;21043;-63
2022/12/24 09:13:43;;;;;;;43.80;32.25;;;;;;;6.94;59.85;99903.69;1748786;80;21031;-62
2022/12/24 09:16:10;;;;;;;42.13;30.92;;;;;;;6.96;60.02;99910.94;1701403;83;21044;-64
2022/12/24 09:18:38;;;;;;;45.15;32.78;;;;;;;6.96;59.74;99913.11;1700856;82;21277;-62
2022/12/24 09:21:07;;;;;;;43.85;31.82;;;;;;;6.92;59.76;99913.43;1754893;80;21056;-63
2022/12/24 09:23:38;;;;;;;45.38;31.17;;;;;;;6.88;59.72;99919.36;1757511;80;21054;-63
2022/12/24 09:26:06;;;;;;;45.67;32.78;;;;;;;6.83;59.79;99911.84;1755104;80;21060;-61
2022/12/24 09:28:33;;;;;;;39.90;29.37;;;;;;;6.82;59.88;99920.62;1754161;79;21056;-63
2022/12/24 09:31:01;;;;;;;41.60;29.75;;;;;;;6.78;59.75;99918.36;1763099;80;21260;-62
2022/12/24 09:33:29;;;;;;;43.33;28.70;;;;;;;6.73;59.81;99919.16;1750071;80;20990;-62
2022/12/24 09:35:56;;;;;;;37.42;27.90;;;;;;;6.70;59.86;99930.66;1746826;80;21095;-63
2022/12/24 09:38:24;;;;;;;39.80;28.60;;;;;;;6.65;60.07;99926.23;1757279;80;20996;-62
2022/12/24 09:40:50;;;;;;;38.45;28.25;;;;;;;6.68;60.25;99926.84;1755560;80;21023;-62
2022/12/24 09:43:23;;;;;;;38.35;27.30;;;;;;;6.80;60.17;99920.38;1750290;80;21445;-63
2022/12/24 09:46:05;;;;;;;34.95;27.73;;;;;;;6.87;59.86;99922.42;1752890;80;21724;-62
2022/12/24 09:48:42;;;;;;;40.20;28.40;;;;;;;6.87;59.94;99921.60;1759080;80;21130;-63
2022/12/24 09:51:17;;;;;;;34.20;27.00;;;;;;;6.88;59.96;99920.67;1758096;80;21042;-62
2022/12/24 09:54:02;;;;;;;35.65;27.05;;;;;;;6.88;59.78;99923.28;1756981;79;21071;-62
2022/12/24 09:56:33;;;;;;;24.17;13.83;;;;;;;6.87;59.88;99924.22;1680486;84;21168;-63
2022/12/24 09:59:03;;;;;;;35.85;27.48;;;;;;;6.84;59.99;99914.83;1687863;83;21076;-62
2022/12/24 10:01:31;;;;;;;38.17;28.57;;;;;;;6.85;60.09;99925.63;1692674;83;21022;-63
2022/12/24 10:04:12;;;;;;;35.75;28.17;;;;;;;6.89;60.25;99919.70;1753744;80;22310;-62
2022/12/24 10:10:24;;;;;;;38.30;28.50;;;;;;;6.83;60.89;99903.99;1791867;77;22787;-62
2022/12/24 10:13:12;;;;;;;24.90;13.72;;;;;;;7.08;60.14;99910.07;1768794;80;21692;-61
2022/12/24 10:15:52;;;;;;;37.53;26.42;;;;;;;7.13;59.85;99913.19;1760542;80;21123;-65
2022/12/24 10:18:32;;;;;;;38.38;27.27;;;;;;;7.22;59.50;99909.05;1762620;80;20999;-64
2022/12/24 10:21:07;;;;;;;35.58;28.55;;;;;;;7.27;59.58;99902.17;1765636;80;20963;-65
2022/12/24 10:23:53;;;;;;;56.07;37.30;;;;;;;7.33;59.57;99896.47;1769047;80;21089;-62
2022/12/24 10:26:32;;;;;;;;;;;;;;;7.37;59.52;99901.85;1766269;80;21046;-63
2022/12/24 10:29:02;;;;;;;37.73;29.27;;;;;;;7.39;59.39;99909.94;1782072;80;21258;-62
2022/12/24 10:31:35;;;;;;;41.10;30.35;;;;;;;7.41;59.60;99922.91;1777713;80;20990;-62
2022/12/24 10:34:06;;;;;;;38.20;29.70;;;;;;;7.42;59.61;99929.83;1755451;81;21019;-62
2022/12/24 10:36:32;;;;;;;37.35;29.60;;;;;;;7.40;59.67;99927.80;1764359;80;21035;-67
2022/12/24 10:38:59;;;;;;;42.33;30.43;;;;;;;7.39;59.75;99926.13;1766244;80;21524;-63
2022/12/24 10:41:25;;;;;;;37.10;29.50;;;;;;;7.35;59.73;99930.75;1742569;80;21982;-62
2022/12/24 10:43:52;;;;;;;43.65;32.03;;;;;;;7.33;59.89;99926.56;1760603;80;21549;-61
2022/12/24 10:46:22;;;;;;;41.55;30.37;;;;;;;7.31;60.04;99925.37;1759099;80;21569;-62
2022/12/24 10:48:58;;;;;;;36.05;28.00;;;;;;;7.34;60.00;99934.79;1785863;80;21106;-62
2022/12/24 10:51:51;;;;;;;36.38;28.10;;;;;;;7.43;59.71;99938.88;1787173;80;21522;-62
2022/12/24 10:54:22;;;;;;;37.70;29.18;;;;;;;7.47;59.51;99936.04;1756959;80;21192;-62
2022/12/24 10:56:53;;;;;;;35.13;28.98;;;;;;;7.45;59.63;99933.53;1780673;80;21474;-62
2022/12/24 10:59:29;;;;;;;38.90;29.12;;;;;;;7.44;59.63;99934.47;1783391;80;21046;-62
2022/12/24 11:01:57;;;;;;;40.67;30.10;;;;;;;7.41;59.54;99935.55;1771096;80;21019;-62
2022/12/24 11:04:28;;;;;;;45.33;33.40;;;;;;;7.41;59.80;99932.93;1765479;80;21003;-62
2022/12/24 11:07:01;;;;;;;36.20;29.50;;;;;;;7.41;59.92;99926.84;1768027;80;21116;-63
2022/12/24 11:09:36;;;;;;;41.63;30.48;;;;;;;7.39;59.72;99930.88;1782189;80;21578;-62
2022/12/24 11:12:04;;;;;;;41.15;31.17;;;;;;;7.33;59.91;99933.11;1766714;80;21625;-63
2022/12/24 11:14:34;;;;;;;38.48;30.40;;;;;;;7.25;60.07;99948.91;1775995;79;21126;-63
2022/12/24 11:17:00;;;;;;;38.85;30.57;;;;;;;7.19;60.30;99945.42;1774635;79;21581;-63
2022/12/24 11:22:42;;;;;;;45.40;32.67;;;;;;;7.16;60.67;99946.13;1678503;83;21052;-62
2022/12/24 11:25:21;;;;;;;38.98;28.85;;;;;;;7.28;60.88;99943.94;1642380;86;21046;-62
2022/12/24 11:27:50;;;;;;;40.08;29.70;;;;;;;7.41;61.06;99933.38;1690972;83;21093;-61
2022/12/24 11:30:25;;;;;;;40.95;31.48;;;;;;;7.57;61.07;99944.39;1729954;82;21526;-60
2022/12/24 11:33:03;;;;;;;36.28;28.30;;;;;;;7.70;60.95;99941.70;1716460;81;21204;-63
2022/12/24 11:35:32;;;;;;;36.45;29.48;;;;;;;7.76;60.43;99943.02;1656128;83;21587;-63
2022/12/24 11:38:07;;;;;;;37.33;29.48;;;;;;;7.76;60.14;99937.77;1740191;82;21043;-63
2022/12/24 11:40:37;;;;;;;40.85;30.45;;;;;;;7.74;59.96;99934.44;1739734;82;21018;-62
2022/12/24 11:43:04;;;;;;;37.28;29.98;;;;;;;7.70;59.61;99940.39;1722756;81;21082;-63
2022/12/24 11:45:32;;;;;;;40.67;30.80;;;;;;;7.59;59.45;99949.03;1670901;83;22162;-63
2022/12/24 11:47:59;;;;;;;39.75;31.60;;;;;;;7.45;59.60;99950.55;1732112;81;21749;-61
2022/12/24 11:50:34;;;;;;;39.85;30.82;;;;;;;7.35;59.96;99953.48;1738928;81;21103;-62
2022/12/24 11:53:16;;;;;;;22.58;14.47;;;;;;;7.31;60.04;99953.33;1724819;82;21102;-62
2022/12/24 11:55:51;;;;;;;42.45;30.50;;;;;;;7.23;60.18;99955.22;1724060;82;21033;-62
2022/12/24 11:58:41;;;;;;;42.80;30.77;;;;;;;7.14;60.29;99955.39;1735967;81;21783;-62